Clyde, Michigan
Current Conditions -  °F | °C
As of 8:36 AM on Wednesday 22 Oct 2014 (Local Time) from KPHN Reporting Station
Overcast Overcast  
Wind Chill: 42°   Ceiling: 2100
Heat Index: 45°   Visibility: 10mi
Dew Point: 39°   Wind: 5mph
Humidity: 81%   Direction: 10°N
Pressure: 30.31"   Gusts: NA
Location:  43.0355°N, 82.5759°W
Report Text: KPHN 221236Z AUTO 01004KT 10SM OVC021 07/04 A3031 RMK AO2
Loading
Personal Weather Stations






























Interactive Weather Map New forecast layout! Learn more

10-Day Weather Forecast

Advertisements
Track Severe Weather on mobile